createdAt,value
2019-03-21T00:01:03.889Z,3.10
2019-03-21T00:03:35.317Z,3.00
2019-03-21T00:06:08.695Z,3.00
2019-03-21T00:08:40.355Z,2.90
2019-03-21T00:12:17.764Z,2.90
2019-03-21T00:15:29.753Z,3.00
2019-03-21T00:18:08.947Z,3.20
2019-03-21T00:20:40.473Z,3.50
2019-03-21T00:23:12.563Z,3.60
2019-03-21T00:25:44.029Z,3.70
2019-03-21T00:28:15.426Z,3.80
2019-03-21T00:30:46.846Z,3.90
2019-03-21T00:33:18.388Z,3.80
2019-03-21T00:35:49.796Z,3.80
2019-03-21T00:38:21.312Z,3.80
2019-03-21T00:40:52.829Z,3.80
2019-03-21T00:43:24.615Z,3.70
2019-03-21T00:45:56.110Z,3.60
2019-03-21T00:48:27.499Z,3.40
2019-03-21T00:50:59.046Z,3.20
2019-03-21T00:53:30.436Z,3.00
2019-03-21T00:56:02.174Z,2.80
2019-03-21T00:58:33.602Z,2.70
2019-03-21T01:01:05.218Z,2.80
2019-03-21T01:03:36.624Z,2.60
2019-03-21T01:06:08.209Z,2.50
2019-03-21T01:08:39.661Z,2.40
2019-03-21T01:11:11.082Z,2.30
2019-03-21T01:13:42.731Z,2.20
2019-03-21T01:16:14.156Z,2.20
2019-03-21T01:18:45.860Z,2.20
2019-03-21T01:21:17.393Z,2.20
2019-03-21T01:23:49.190Z,2.30
2019-03-21T01:26:20.631Z,2.20
2019-03-21T01:28:52.127Z,2.10
2019-03-21T01:31:23.553Z,1.80
2019-03-21T01:33:54.953Z,1.60
2019-03-21T01:36:27.166Z,1.60
2019-03-21T01:38:58.608Z,1.60
2019-03-21T01:41:30.024Z,1.60
2019-03-21T01:44:01.539Z,1.60
2019-03-21T01:46:32.998Z,1.60
2019-03-21T01:49:04.465Z,1.70
2019-03-21T01:51:35.894Z,1.60
2019-03-21T01:54:07.879Z,1.60
2019-03-21T01:56:39.736Z,1.60
2019-03-21T01:59:11.564Z,1.60
2019-03-21T02:01:43.275Z,1.60
2019-03-21T02:04:14.654Z,1.60
2019-03-21T02:06:46.126Z,1.70
2019-03-21T02:09:17.606Z,1.60
2019-03-21T02:11:49.047Z,1.60
2019-03-21T02:14:20.523Z,1.40
2019-03-21T02:16:52.050Z,1.30
2019-03-21T02:19:23.550Z,1.10
2019-03-21T02:21:54.999Z,1.00
2019-03-21T02:24:26.476Z,1.00
2019-03-21T02:26:58.240Z,1.00
2019-03-21T02:29:29.660Z,1.30
2019-03-21T02:32:01.258Z,1.30
2019-03-21T02:34:32.767Z,1.10
2019-03-21T02:37:04.491Z,1.10
2019-03-21T02:39:36.164Z,1.10
2019-03-21T02:42:07.573Z,1.10
2019-03-21T02:44:39.041Z,1.10
2019-03-21T02:47:10.576Z,1.10
2019-03-21T02:49:42.022Z,1.00
2019-03-21T02:52:13.437Z,0.90
2019-03-21T02:54:45.247Z,0.90
2019-03-21T02:57:16.663Z,1.00
2019-03-21T02:59:48.074Z,1.00
2019-03-21T03:02:19.663Z,1.10
2019-03-21T03:04:51.068Z,1.00
2019-03-21T03:07:22.566Z,1.10
2019-03-21T03:09:54.047Z,1.00
2019-03-21T03:12:25.642Z,0.80
2019-03-21T03:14:57.057Z,0.80
2019-03-21T03:17:28.577Z,0.80
2019-03-21T03:20:00.002Z,0.60
2019-03-21T03:22:31.436Z,0.50
2019-03-21T03:25:03.101Z,0.50
2019-03-21T03:27:34.522Z,0.70
2019-03-21T03:30:06.561Z,0.70
2019-03-21T03:32:38.206Z,0.70
2019-03-21T03:35:11.883Z,0.60
2019-03-21T03:37:43.576Z,0.50
2019-03-21T03:40:19.483Z,0.30
2019-03-21T03:42:51.190Z,0.10
2019-03-21T03:45:36.578Z,0.20
2019-03-21T03:47:59.471Z,0.20
2019-03-21T03:50:30.977Z,0.10
2019-03-21T03:53:02.592Z,0.10
2019-03-21T03:55:34.424Z,0.20
2019-03-21T03:58:09.243Z,0.30
2019-03-21T04:00:41.072Z,0.40
2019-03-21T04:03:12.907Z,0.50
2019-03-21T04:05:44.379Z,0.50
2019-03-21T04:08:15.806Z,0.50
2019-03-21T04:10:48.198Z,0.50
2019-03-21T04:13:19.766Z,0.70
2019-03-21T04:15:53.564Z,0.70
2019-03-21T04:18:24.945Z,0.60
2019-03-21T04:20:57.735Z,0.60
2019-03-21T04:23:29.283Z,0.40
2019-03-21T04:26:06.122Z,0.30
2019-03-21T04:28:37.779Z,0.20
2019-03-21T04:31:09.541Z,0.30
2019-03-21T04:33:41.597Z,0.50
2019-03-21T04:36:14.041Z,0.50
2019-03-21T04:38:46.002Z,0.50
2019-03-21T04:41:17.578Z,0.60
2019-03-21T04:43:49.030Z,0.60
2019-03-21T04:46:20.459Z,0.70
2019-03-21T04:48:52.019Z,0.50
2019-03-21T04:51:23.453Z,0.40
2019-03-21T04:53:54.882Z,0.30
2019-03-21T04:56:26.798Z,0.40
2019-03-21T04:58:58.222Z,0.40
2019-03-21T05:01:29.636Z,0.30
2019-03-21T05:04:01.240Z,0.30
2019-03-21T05:06:32.960Z,0.10
2019-03-21T05:09:06.202Z,0.10
2019-03-21T05:11:38.005Z,0.10
2019-03-21T05:14:09.421Z,0.00
2019-03-21T05:16:40.819Z,0.10
2019-03-21T05:19:12.404Z,0.00
2019-03-21T05:21:44.233Z,0.00
2019-03-21T05:24:16.079Z,0.00
2019-03-21T05:26:49.020Z,-0.10
2019-03-21T05:29:20.419Z,-0.10
2019-03-21T05:31:51.835Z,-0.10
2019-03-21T05:34:23.575Z,-0.10
2019-03-21T05:36:55.010Z,-0.10
2019-03-21T05:39:26.850Z,0.00
2019-03-21T05:41:58.427Z,0.10
2019-03-21T05:44:36.128Z,0.10
2019-03-21T05:47:07.750Z,0.10
2019-03-21T05:49:39.281Z,0.00
2019-03-21T05:52:12.236Z,0.10
2019-03-21T05:54:43.923Z,0.10
2019-03-21T05:57:15.640Z,0.20
2019-03-21T05:59:47.029Z,0.20
2019-03-21T06:02:19.562Z,0.30
2019-03-21T06:04:50.984Z,0.40
2019-03-21T06:07:44.871Z,0.40
2019-03-21T06:10:18.067Z,0.40
2019-03-21T06:12:49.618Z,0.50
2019-03-21T06:15:28.190Z,0.60
2019-03-21T06:18:53.055Z,0.70
2019-03-21T06:22:07.511Z,0.80
2019-03-21T06:25:42.640Z,0.80
2019-03-21T06:28:14.033Z,0.80
2019-03-21T06:30:45.439Z,0.80
2019-03-21T06:33:17.097Z,1.00
2019-03-21T06:35:48.516Z,1.00
2019-03-21T06:38:19.968Z,0.90
2019-03-21T06:40:51.533Z,1.00
2019-03-21T06:43:23.314Z,1.20
2019-03-21T06:45:55.073Z,1.40
2019-03-21T06:48:26.472Z,1.70
2019-03-21T06:50:58.079Z,1.60
2019-03-21T06:53:29.513Z,1.60
2019-03-21T06:56:01.320Z,1.60
2019-03-21T06:58:32.802Z,1.60
2019-03-21T07:01:04.343Z,1.70
2019-03-21T07:03:35.914Z,1.80
2019-03-21T07:06:07.329Z,2.00
2019-03-21T07:08:38.917Z,2.00
2019-03-21T07:11:10.354Z,2.00
2019-03-21T07:13:41.871Z,2.10
2019-03-21T07:16:13.380Z,2.20
2019-03-21T07:18:44.993Z,2.30
2019-03-21T07:21:16.404Z,2.40
2019-03-21T07:23:48.255Z,2.60
2019-03-21T07:26:20.078Z,2.80
2019-03-21T07:28:51.544Z,2.90
2019-03-21T07:31:23.197Z,3.10
2019-03-21T07:33:55.021Z,3.10
2019-03-21T07:36:26.468Z,3.20
2019-03-21T07:38:58.027Z,3.30
2019-03-21T07:41:29.437Z,3.40
2019-03-21T07:44:00.849Z,3.40
2019-03-21T07:46:32.429Z,3.50
2019-03-21T07:49:03.943Z,3.60
2019-03-21T07:51:35.358Z,3.80
2019-03-21T07:54:06.764Z,4.00
2019-03-21T07:56:38.317Z,4.20
2019-03-21T07:59:09.717Z,4.40
2019-03-21T08:01:41.145Z,4.50
2019-03-21T08:04:13.048Z,4.60
2019-03-21T08:06:44.463Z,4.60
2019-03-21T08:09:15.850Z,4.70
2019-03-21T08:11:47.772Z,4.80
2019-03-21T08:14:19.617Z,4.80
2019-03-21T08:16:51.034Z,4.80
2019-03-21T08:19:22.590Z,4.90
2019-03-21T08:21:54.343Z,5.00
2019-03-21T08:24:25.755Z,5.20
2019-03-21T08:26:57.350Z,5.40
2019-03-21T08:29:28.770Z,5.50
2019-03-21T08:32:00.552Z,5.60
2019-03-21T08:34:32.183Z,5.70
2019-03-21T08:37:03.592Z,5.90
2019-03-21T08:39:34.993Z,6.10
2019-03-21T08:42:06.566Z,6.20
2019-03-21T08:44:37.999Z,6.40
2019-03-21T08:47:10.104Z,6.60
2019-03-21T08:49:41.859Z,6.80
2019-03-21T08:52:13.852Z,7.00
2019-03-21T08:54:45.322Z,7.10
2019-03-21T08:57:17.140Z,7.10
2019-03-21T08:59:48.654Z,7.30
2019-03-21T09:02:20.068Z,7.40
2019-03-21T09:04:51.488Z,7.40
2019-03-21T09:07:22.993Z,7.50
2019-03-21T09:09:54.578Z,7.60
2019-03-21T09:12:26.345Z,7.60
2019-03-21T09:14:57.903Z,7.80
2019-03-21T09:17:29.402Z,8.00
2019-03-21T09:20:00.817Z,7.80
2019-03-21T09:22:32.422Z,7.80
2019-03-21T09:25:04.899Z,7.90
2019-03-21T09:27:36.425Z,7.90
2019-03-21T09:30:09.252Z,7.80
2019-03-21T09:32:40.669Z,7.90
2019-03-21T09:35:12.625Z,7.90
2019-03-21T09:37:44.202Z,7.90
2019-03-21T09:40:15.871Z,8.20
2019-03-21T09:42:47.263Z,8.50
2019-03-21T09:45:19.161Z,8.80
2019-03-21T09:47:51.357Z,9.00
2019-03-21T09:50:30.418Z,9.10
2019-03-21T09:53:02.010Z,9.00
2019-03-21T09:55:33.448Z,9.20
2019-03-21T09:58:04.856Z,9.50
2019-03-21T10:00:37.767Z,9.40
2019-03-21T10:03:09.623Z,9.60
2019-03-21T10:05:41.066Z,9.60
2019-03-21T10:08:12.663Z,9.60
2019-03-21T10:10:44.076Z,9.60
2019-03-21T10:13:15.853Z,9.90
2019-03-21T10:15:47.433Z,10.10
2019-03-21T10:18:19.044Z,10.30
2019-03-21T10:20:50.558Z,10.50
2019-03-21T10:23:22.180Z,10.60
2019-03-21T10:25:53.635Z,10.60
2019-03-21T10:28:25.055Z,10.70
2019-03-21T10:30:57.368Z,10.60
2019-03-21T10:33:28.829Z,10.60
2019-03-21T10:36:00.235Z,10.70
2019-03-21T10:38:31.700Z,10.90
2019-03-21T10:41:03.135Z,11.20
2019-03-21T10:43:34.545Z,11.30
2019-03-21T10:46:06.270Z,11.40
2019-03-21T10:48:37.947Z,11.50
2019-03-21T10:51:09.357Z,11.70
2019-03-21T10:53:40.920Z,11.80
2019-03-21T10:56:12.325Z,11.70
2019-03-21T10:58:44.116Z,11.60
2019-03-21T11:01:15.575Z,11.90
2019-03-21T11:03:47.083Z,12.00
2019-03-21T11:06:18.500Z,12.20
2019-03-21T11:08:51.391Z,12.10
2019-03-21T11:11:23.149Z,12.60
2019-03-21T11:13:54.537Z,13.30
2019-03-21T11:16:26.137Z,13.60
2019-03-21T11:18:57.908Z,13.90
2019-03-21T11:21:29.309Z,14.40
2019-03-21T11:24:00.862Z,14.80
2019-03-21T11:26:32.283Z,15.10
2019-03-21T11:29:04.009Z,14.90
2019-03-21T11:31:35.541Z,15.10
2019-03-21T11:34:07.136Z,15.00
2019-03-21T11:36:39.000Z,14.70
2019-03-21T11:39:11.136Z,14.20
2019-03-21T11:41:42.531Z,14.50
2019-03-21T11:44:14.003Z,15.10
2019-03-21T11:46:45.591Z,15.40
2019-03-21T11:49:17.013Z,16.00
2019-03-21T11:51:48.440Z,16.50
2019-03-21T11:54:19.905Z,16.40
2019-03-21T11:56:51.711Z,16.30
2019-03-21T11:59:23.400Z,16.00
2019-03-21T12:01:55.905Z,16.40
2019-03-21T12:04:27.397Z,16.70
2019-03-21T12:06:59.258Z,17.00
2019-03-21T12:09:30.771Z,16.40
2019-03-21T12:12:02.269Z,16.50
2019-03-21T12:14:34.006Z,17.30
2019-03-21T12:17:05.505Z,17.20
2019-03-21T12:19:36.906Z,16.70
2019-03-21T12:22:08.283Z,16.80
2019-03-21T12:24:39.793Z,16.70
2019-03-21T12:27:11.465Z,16.60
2019-03-21T12:29:43.123Z,16.70
2019-03-21T12:32:14.622Z,16.40
2019-03-21T12:34:46.505Z,17.30
2019-03-21T12:37:18.696Z,18.30
2019-03-21T12:39:50.227Z,18.70
2019-03-21T12:42:21.634Z,17.60
2019-03-21T12:44:53.020Z,17.60
2019-03-21T12:47:31.023Z,18.10
2019-03-21T12:49:57.776Z,17.80
2019-03-21T12:52:40.790Z,18.30
2019-03-21T12:55:02.242Z,18.60
2019-03-21T12:57:33.654Z,18.60
2019-03-21T13:00:06.872Z,18.60
2019-03-21T13:02:38.261Z,18.60
2019-03-21T13:05:12.033Z,17.80
2019-03-21T13:07:43.745Z,18.50
2019-03-21T13:10:15.161Z,18.30
2019-03-21T13:12:46.662Z,18.60
2019-03-21T13:15:29.254Z,18.00
2019-03-21T13:17:51.275Z,18.70
2019-03-21T13:20:22.757Z,18.60
2019-03-21T13:22:54.329Z,18.90
2019-03-21T13:25:25.771Z,18.60
2019-03-21T13:27:57.187Z,19.20
2019-03-21T13:30:28.760Z,18.50
2019-03-21T13:33:00.256Z,19.30
2019-03-21T13:35:33.109Z,19.60
2019-03-21T13:38:05.203Z,20.10
2019-03-21T13:40:37.006Z,19.50
2019-03-21T13:43:11.238Z,19.80
2019-03-21T13:45:42.263Z,19.80
2019-03-21T13:48:13.641Z,19.50
2019-03-21T13:50:45.173Z,19.40
2019-03-21T13:53:18.984Z,19.50
2019-03-21T13:55:49.977Z,19.30
2019-03-21T13:58:21.372Z,19.90
2019-03-21T14:00:53.358Z,19.70
2019-03-21T14:03:25.545Z,19.40
2019-03-21T14:05:57.030Z,20.30
2019-03-21T14:08:29.023Z,20.50
2019-03-21T14:11:00.428Z,19.90
2019-03-21T14:13:31.885Z,19.20
2019-03-21T14:16:03.476Z,19.70
2019-03-21T14:18:34.870Z,20.70
2019-03-21T14:21:06.235Z,20.20
2019-03-21T14:23:43.183Z,20.00
2019-03-21T14:26:11.344Z,19.70
2019-03-21T14:28:42.829Z,19.90
2019-03-21T14:31:14.502Z,21.20
2019-03-21T14:33:46.418Z,20.50
2019-03-21T14:36:17.795Z,19.80
2019-03-21T14:38:49.729Z,19.70
2019-03-21T14:41:21.112Z,19.90
2019-03-21T14:43:52.873Z,20.30
2019-03-21T14:46:24.438Z,20.70
2019-03-21T14:48:55.819Z,20.80
2019-03-21T14:51:27.244Z,19.90
2019-03-21T14:53:58.653Z,19.70
2019-03-21T14:56:30.146Z,20.30
2019-03-21T14:59:01.535Z,20.80
2019-03-21T15:01:32.948Z,21.10
2019-03-21T15:04:04.952Z,21.10
2019-03-21T15:06:36.348Z,21.30
2019-03-21T15:09:09.457Z,21.30
2019-03-21T15:11:41.205Z,20.90
2019-03-21T15:14:12.635Z,20.60
2019-03-21T15:16:44.362Z,20.70
2019-03-21T15:19:15.865Z,20.80
2019-03-21T15:21:47.657Z,21.80
2019-03-21T15:24:19.089Z,21.80
2019-03-21T15:26:51.279Z,20.60
2019-03-21T15:29:22.969Z,20.30
2019-03-21T15:31:54.370Z,20.80
2019-03-21T15:34:25.891Z,20.70
2019-03-21T15:36:57.597Z,21.20
2019-03-21T15:39:28.977Z,21.30
2019-03-21T15:42:00.567Z,21.40
2019-03-21T15:44:31.959Z,21.10
2019-03-21T15:47:03.780Z,21.60
2019-03-21T15:49:35.329Z,21.80
2019-03-21T15:52:06.743Z,22.10
2019-03-21T15:54:38.467Z,21.90
2019-03-21T15:57:09.995Z,21.50
2019-03-21T15:59:41.788Z,21.30
2019-03-21T16:02:13.206Z,21.30
2019-03-21T16:04:44.746Z,21.20
2019-03-21T16:07:16.126Z,21.30
2019-03-21T16:09:47.616Z,21.10
2019-03-21T16:12:19.171Z,21.40
2019-03-21T16:14:50.618Z,21.50
2019-03-21T16:17:22.018Z,20.10
2019-03-21T16:19:53.843Z,20.20
2019-03-21T16:22:25.323Z,19.50
2019-03-21T16:24:56.740Z,18.70
2019-03-21T16:27:28.358Z,18.90
2019-03-21T16:29:59.743Z,18.60
2019-03-21T16:32:31.164Z,17.90
2019-03-21T16:35:02.788Z,17.00
2019-03-21T16:37:34.311Z,16.20
2019-03-21T16:40:07.140Z,15.90
2019-03-21T16:42:38.606Z,15.70
2019-03-21T16:45:10.247Z,15.40
2019-03-21T16:47:41.756Z,15.30
2019-03-21T16:50:14.391Z,15.10
2019-03-21T16:52:46.154Z,14.90
2019-03-21T16:55:17.626Z,14.70
2019-03-21T16:57:49.296Z,14.70
2019-03-21T17:00:20.963Z,14.60
2019-03-21T17:02:52.778Z,14.50
2019-03-21T17:05:24.294Z,14.30
2019-03-21T17:07:56.075Z,14.20
2019-03-21T17:10:27.537Z,14.10
2019-03-21T17:13:04.463Z,14.00
2019-03-21T17:15:33.046Z,13.90
2019-03-21T17:18:04.468Z,13.80
2019-03-21T17:20:35.994Z,13.70
2019-03-21T17:23:07.753Z,13.60
2019-03-21T17:25:39.361Z,13.60
2019-03-21T17:28:10.860Z,13.50
2019-03-21T17:30:42.840Z,13.40
2019-03-21T17:33:14.344Z,13.20
2019-03-21T17:35:45.836Z,13.10
2019-03-21T17:38:17.419Z,13.10
2019-03-21T17:40:48.875Z,13.00
2019-03-21T17:43:20.360Z,12.90
2019-03-21T17:45:52.195Z,12.80
2019-03-21T17:48:23.727Z,12.70
2019-03-21T17:50:55.278Z,12.60
2019-03-21T17:53:26.783Z,12.50
2019-03-21T17:55:58.327Z,12.40
2019-03-21T17:58:30.249Z,12.30
2019-03-21T18:01:01.857Z,12.10
2019-03-21T18:03:33.294Z,12.00
2019-03-21T18:06:04.753Z,11.90
2019-03-21T18:08:36.287Z,11.80
2019-03-21T18:11:07.788Z,11.70
2019-03-21T18:13:39.209Z,11.70
2019-03-21T18:16:10.826Z,11.70
2019-03-21T18:18:42.292Z,11.70
2019-03-21T18:21:13.849Z,11.70
2019-03-21T18:23:45.335Z,11.70
2019-03-21T18:26:16.971Z,11.80
2019-03-21T18:28:48.814Z,11.80
2019-03-21T18:31:21.284Z,11.70
2019-03-21T18:33:52.727Z,11.70
2019-03-21T18:36:24.201Z,11.60
2019-03-21T18:38:59.325Z,11.60
2019-03-21T18:41:29.212Z,11.60
2019-03-21T18:44:00.752Z,11.60
2019-03-21T18:46:32.889Z,11.60
2019-03-21T18:49:04.443Z,11.50
2019-03-21T18:51:36.191Z,11.50
2019-03-21T18:54:07.958Z,11.40
2019-03-21T18:56:39.478Z,11.40
2019-03-21T18:59:10.903Z,11.30
2019-03-21T19:01:42.383Z,11.30
2019-03-21T19:04:13.834Z,11.30
2019-03-21T19:06:45.310Z,11.20
2019-03-21T19:09:16.732Z,11.20
2019-03-21T19:11:48.263Z,11.20
2019-03-21T19:14:19.759Z,11.20
2019-03-21T19:16:51.165Z,11.20
2019-03-21T19:19:22.965Z,11.10
2019-03-21T19:21:54.926Z,11.10
2019-03-21T19:24:26.366Z,11.10
2019-03-21T19:26:58.245Z,11.10
2019-03-21T19:29:29.853Z,11.00
2019-03-21T19:32:01.272Z,10.90
2019-03-21T19:34:32.793Z,10.90
2019-03-21T19:37:04.399Z,10.80
2019-03-21T19:39:35.999Z,10.60
2019-03-21T19:42:07.436Z,10.60
2019-03-21T19:44:38.897Z,10.60
2019-03-21T19:47:10.445Z,10.50
2019-03-21T19:49:41.930Z,10.50
2019-03-21T19:52:13.704Z,10.60
2019-03-21T19:54:45.345Z,10.50
2019-03-21T19:57:17.578Z,10.50
2019-03-21T19:59:49.256Z,10.40
2019-03-21T20:02:20.690Z,10.30
2019-03-21T20:04:52.431Z,10.30
2019-03-21T20:07:23.831Z,10.30
2019-03-21T20:09:55.453Z,10.30
2019-03-21T20:12:27.305Z,10.20
2019-03-21T20:14:58.995Z,10.20
2019-03-21T20:17:30.723Z,10.10
2019-03-21T20:20:02.496Z,10.10
2019-03-21T20:22:34.112Z,10.10
2019-03-21T20:25:06.225Z,10.00
2019-03-21T20:27:38.242Z,10.00
2019-03-21T20:30:12.683Z,9.90
2019-03-21T20:32:44.386Z,9.90
2019-03-21T20:35:16.115Z,9.80
2019-03-21T20:37:47.544Z,9.80
2019-03-21T20:40:19.654Z,9.70
2019-03-21T20:42:51.382Z,9.70
2019-03-21T20:45:23.319Z,9.60
2019-03-21T20:47:54.730Z,9.60
2019-03-21T20:50:26.303Z,9.60
2019-03-21T20:52:58.690Z,9.50
2019-03-21T20:55:30.158Z,9.50
2019-03-21T20:58:01.705Z,9.50
2019-03-21T21:00:33.147Z,9.50
2019-03-21T21:03:05.338Z,9.50
2019-03-21T21:05:36.786Z,9.50
2019-03-21T21:08:08.325Z,9.40
2019-03-21T21:10:39.764Z,9.30
2019-03-21T21:13:11.619Z,9.30
2019-03-21T21:15:43.385Z,9.20
2019-03-21T21:18:14.859Z,9.20
2019-03-21T21:20:46.401Z,9.10
2019-03-21T21:23:17.842Z,9.10
2019-03-21T21:25:49.317Z,9.10
2019-03-21T21:28:21.232Z,9.10
2019-03-21T21:30:52.665Z,9.20
2019-03-21T21:33:24.159Z,9.20
2019-03-21T21:35:56.353Z,9.20
2019-03-21T21:38:27.882Z,9.20
2019-03-21T21:40:59.323Z,9.10
2019-03-21T21:43:31.178Z,9.10
2019-03-21T21:46:02.968Z,9.00
2019-03-21T21:48:34.492Z,9.00
2019-03-21T21:51:06.273Z,9.00
2019-03-21T21:53:37.915Z,9.00
2019-03-21T21:56:17.465Z,9.00
2019-03-21T21:58:42.546Z,9.00
2019-03-21T22:01:14.322Z,9.00
2019-03-21T22:03:45.859Z,8.90
2019-03-21T22:06:17.412Z,8.90
2019-03-21T22:08:48.864Z,8.90
2019-03-21T22:11:21.041Z,8.80
2019-03-21T22:13:52.585Z,8.80
2019-03-21T22:16:24.365Z,8.60
2019-03-21T22:18:55.898Z,8.40
2019-03-21T22:21:27.424Z,8.40
2019-03-21T22:23:58.911Z,8.40
2019-03-21T22:26:30.343Z,8.40
2019-03-21T22:29:01.791Z,8.40
2019-03-21T22:31:33.243Z,8.30
2019-03-21T22:34:05.032Z,8.30
2019-03-21T22:36:48.685Z,8.20
2019-03-21T22:39:11.242Z,7.90
2019-03-21T22:41:42.742Z,7.80
2019-03-21T22:44:14.175Z,7.90
2019-03-21T22:46:45.580Z,8.00
2019-03-21T22:49:17.081Z,8.00
2019-03-21T22:51:48.485Z,8.00
2019-03-21T22:54:19.910Z,7.90
2019-03-21T22:56:51.435Z,7.70
2019-03-21T22:59:23.277Z,7.60
2019-03-21T23:01:54.701Z,7.70
2019-03-21T23:04:26.219Z,7.60
2019-03-21T23:06:57.710Z,7.50
2019-03-21T23:09:29.699Z,7.40
2019-03-21T23:12:01.138Z,7.30
2019-03-21T23:14:33.352Z,7.20
2019-03-21T23:17:04.805Z,7.30
2019-03-21T23:19:36.345Z,7.40
2019-03-21T23:22:07.739Z,7.40
2019-03-21T23:24:39.243Z,7.50
2019-03-21T23:27:10.669Z,7.60
2019-03-21T23:29:42.061Z,7.70
2019-03-21T23:32:13.608Z,7.80
2019-03-21T23:34:45.038Z,7.90
2019-03-21T23:37:16.813Z,7.90
2019-03-21T23:39:48.232Z,7.90
2019-03-21T23:42:19.645Z,7.60
2019-03-21T23:44:51.422Z,7.40
2019-03-21T23:47:22.931Z,7.20
2019-03-21T23:49:54.441Z,7.20
2019-03-21T23:52:26.365Z,7.10
2019-03-21T23:54:57.769Z,7.10
2019-03-21T23:57:29.613Z,7.00
